sensor_id;sensor_type;location;lat;lon;timestamp;pressure;altitude;pressure_sealevel;temperature;humidity
24234;BME280;12365;43.554;1.388;2024-03-23T00:51:15;100287.69;;;18.76;56.35
24234;BME280;12365;43.554;1.388;2024-03-23T00:56:07;100293.72;;;18.70;56.73
24234;BME280;12365;43.554;1.388;2024-03-23T00:58:32;100296.34;;;18.69;56.59
24234;BME280;12365;43.554;1.388;2024-03-23T01:00:58;100293.75;;;18.72;56.38
24234;BME280;12365;43.554;1.388;2024-03-23T01:03:23;100299.88;;;18.71;56.36
24234;BME280;12365;43.554;1.388;2024-03-23T01:05:49;100311.34;;;18.70;56.62
24234;BME280;12365;43.554;1.388;2024-03-23T01:08:14;100314.84;;;18.69;56.60
24234;BME280;12365;43.554;1.388;2024-03-23T01:10:40;100317.50;;;18.70;56.66
24234;BME280;12365;43.554;1.388;2024-03-23T01:13:05;100315.69;;;18.68;56.72
24234;BME280;12365;43.554;1.388;2024-03-23T01:15:31;100320.03;;;18.66;56.90
24234;BME280;12365;43.554;1.388;2024-03-23T01:17:57;100327.00;;;18.62;56.92
24234;BME280;12365;43.554;1.388;2024-03-23T01:20:22;100329.59;;;18.59;56.97
24234;BME280;12365;43.554;1.388;2024-03-23T01:22:47;100326.94;;;18.59;57.09
24234;BME280;12365;43.554;1.388;2024-03-23T01:25:13;100322.53;;;18.59;56.96
24234;BME280;12365;43.554;1.388;2024-03-23T01:27:38;100332.34;;;18.63;56.70
24234;BME280;12365;43.554;1.388;2024-03-23T01:30:04;100320.78;;;18.58;56.92
24234;BME280;12365;43.554;1.388;2024-03-23T01:32:29;100318.91;;;18.56;57.13
24234;BME280;12365;43.554;1.388;2024-03-23T01:34:55;100326.75;;;18.51;57.12
24234;BME280;12365;43.554;1.388;2024-03-23T01:37:20;100325.94;;;18.54;56.92
24234;BME280;12365;43.554;1.388;2024-03-23T01:39:46;100325.94;;;18.55;56.83
24234;BME280;12365;43.554;1.388;2024-03-23T01:42:12;100325.88;;;18.52;56.92
24234;BME280;12365;43.554;1.388;2024-03-23T01:44:37;100327.47;;;18.46;57.38
24234;BME280;12365;43.554;1.388;2024-03-23T01:47:06;100327.47;;;18.46;57.04
24234;BME280;12365;43.554;1.388;2024-03-23T01:49:32;100333.63;;;18.45;56.97
24234;BME280;12365;43.554;1.388;2024-03-23T01:51:58;100342.44;;;18.45;56.88
24234;BME280;12365;43.554;1.388;2024-03-23T01:54:25;100347.66;;;18.42;56.88
24234;BME280;12365;43.554;1.388;2024-03-23T01:56:50;100350.25;;;18.40;57.20
24234;BME280;12365;43.554;1.388;2024-03-23T01:59:16;100348.53;;;18.41;57.12
24234;BME280;12365;43.554;1.388;2024-03-23T02:01:41;100348.53;;;18.41;56.82
24234;BME280;12365;43.554;1.388;2024-03-23T02:04:06;100351.03;;;18.36;56.98
24234;BME280;12365;43.554;1.388;2024-03-23T02:06:32;100358.78;;;18.30;56.90
24234;BME280;12365;43.554;1.388;2024-03-23T02:08:58;100358.78;;;18.29;56.77
24234;BME280;12365;43.554;1.388;2024-03-23T02:11:24;100355.25;;;18.28;56.25
24234;BME280;12365;43.554;1.388;2024-03-23T02:13:50;100375.47;;;18.28;56.28
24234;BME280;12365;43.554;1.388;2024-03-23T02:16:15;100356.69;;;18.17;55.96
24234;BME280;12365;43.554;1.388;2024-03-23T02:18:41;100382.91;;;18.09;55.72
24234;BME280;12365;43.554;1.388;2024-03-23T02:21:06;100376.44;;;17.98;55.42
24234;BME280;12365;43.554;1.388;2024-03-23T02:23:32;100379.78;;;17.92;54.98
24234;BME280;12365;43.554;1.388;2024-03-23T02:25:57;100394.66;;;17.89;54.69
24234;BME280;12365;43.554;1.388;2024-03-23T02:28:22;100397.22;;;17.86;54.33
24234;BME280;12365;43.554;1.388;2024-03-23T02:30:51;100391.84;;;17.83;53.97
24234;BME280;12365;43.554;1.388;2024-03-23T02:33:17;100390.03;;;17.82;53.80
24234;BME280;12365;43.554;1.388;2024-03-23T02:35:46;100405.72;;;17.77;53.49
24234;BME280;12365;43.554;1.388;2024-03-23T02:38:11;100415.31;;;17.73;53.32
24234;BME280;12365;43.554;1.388;2024-03-23T02:40:36;100424.63;;;17.62;53.08
24234;BME280;12365;43.554;1.388;2024-03-23T02:43:03;100407.53;;;17.49;52.59
24234;BME280;12365;43.554;1.388;2024-03-23T02:45:28;100417.13;;;17.46;52.98
24234;BME280;12365;43.554;1.388;2024-03-23T02:47:54;100424.00;;;17.41;52.80
24234;BME280;12365;43.554;1.388;2024-03-23T02:50:19;100423.03;;;17.37;52.83
24234;BME280;12365;43.554;1.388;2024-03-23T02:52:45;100417.53;;;17.31;52.77
24234;BME280;12365;43.554;1.388;2024-03-23T02:55:11;100414.75;;;17.26;52.81
24234;BME280;12365;43.554;1.388;2024-03-23T02:57:36;100411.19;;;17.24;52.85
24234;BME280;12365;43.554;1.388;2024-03-23T03:00:02;100413.59;;;17.17;52.95
24234;BME280;12365;43.554;1.388;2024-03-23T03:02:28;100408.16;;;17.12;52.99
24234;BME280;12365;43.554;1.388;2024-03-23T03:04:53;100407.22;;;17.10;53.00
24234;BME280;12365;43.554;1.388;2024-03-23T03:07:19;100411.47;;;17.06;53.02
24234;BME280;12365;43.554;1.388;2024-03-23T03:09:44;100409.78;;;17.07;53.01
24234;BME280;12365;43.554;1.388;2024-03-23T03:12:10;100408.81;;;17.05;53.06
24234;BME280;12365;43.554;1.388;2024-03-23T03:14:35;100412.28;;;17.04;53.07
24234;BME280;12365;43.554;1.388;2024-03-23T03:17:00;100420.09;;;17.01;53.08
24234;BME280;12365;43.554;1.388;2024-03-23T03:19:26;100423.38;;;16.94;53.06
24234;BME280;12365;43.554;1.388;2024-03-23T03:21:52;100428.53;;;16.89;53.13
24234;BME280;12365;43.554;1.388;2024-03-23T03:24:18;100427.34;;;16.81;53.23
24234;BME280;12365;43.554;1.388;2024-03-23T03:26:43;100418.34;;;16.74;53.40
24234;BME280;12365;43.554;1.388;2024-03-23T03:29:09;100427.06;;;16.73;53.36
24234;BME280;12365;43.554;1.388;2024-03-23T03:31:34;100418.00;;;16.65;53.56
24234;BME280;12365;43.554;1.388;2024-03-23T03:34:00;100404.78;;;16.63;53.62
24234;BME280;12365;43.554;1.388;2024-03-23T03:36:25;100410.75;;;16.58;53.63
24234;BME280;12365;43.554;1.388;2024-03-23T03:38:51;100418.47;;;16.53;53.75
24234;BME280;12365;43.554;1.388;2024-03-23T03:41:16;100420.06;;;16.48;54.02
24234;BME280;12365;43.554;1.388;2024-03-23T03:43:41;100419.25;;;16.49;53.86
24234;BME280;12365;43.554;1.388;2024-03-23T03:46:07;100425.31;;;16.46;54.03
24234;BME280;12365;43.554;1.388;2024-03-23T03:48:36;100426.97;;;16.44;54.05
24234;BME280;12365;43.554;1.388;2024-03-23T03:51:02;100435.66;;;16.42;54.03
24234;BME280;12365;43.554;1.388;2024-03-23T03:53:27;100423.19;;;16.36;54.03
24234;BME280;12365;43.554;1.388;2024-03-23T03:55:52;100430.03;;;16.31;54.15
24234;BME280;12365;43.554;1.388;2024-03-23T03:58:18;100443.75;;;16.22;54.28
24234;BME280;12365;43.554;1.388;2024-03-23T04:00:43;100443.59;;;16.18;54.24
24234;BME280;12365;43.554;1.388;2024-03-23T04:03:09;100443.44;;;16.13;54.33
24234;BME280;12365;43.554;1.388;2024-03-23T04:05:34;100447.59;;;16.07;54.50
24234;BME280;12365;43.554;1.388;2024-03-23T04:08:00;100456.19;;;16.02;54.48
24234;BME280;12365;43.554;1.388;2024-03-23T04:10:25;100465.66;;;15.97;54.45
24234;BME280;12365;43.554;1.388;2024-03-23T04:12:52;100471.69;;;15.95;54.49
24234;BME280;12365;43.554;1.388;2024-03-23T04:15:17;100472.56;;;15.94;54.64
24234;BME280;12365;43.554;1.388;2024-03-23T04:17:43;100480.22;;;15.88;54.50
24234;BME280;12365;43.554;1.388;2024-03-23T04:20:09;100493.22;;;15.83;54.41
24234;BME280;12365;43.554;1.388;2024-03-23T04:22:39;100482.56;;;15.80;54.34
24234;BME280;12365;43.554;1.388;2024-03-23T04:25:05;100488.44;;;15.73;54.42
24234;BME280;12365;43.554;1.388;2024-03-23T04:27:36;100490.84;;;15.68;54.25
24234;BME280;12365;43.554;1.388;2024-03-23T04:30:02;100501.19;;;15.64;54.23
24234;BME280;12365;43.554;1.388;2024-03-23T04:32:29;100502.06;;;15.64;54.14
24234;BME280;12365;43.554;1.388;2024-03-23T04:34:54;100510.75;;;15.61;54.09
24234;BME280;12365;43.554;1.388;2024-03-23T04:37:20;100499.41;;;15.63;54.07
24234;BME280;12365;43.554;1.388;2024-03-23T04:39:46;100509.97;;;15.64;53.99
24234;BME280;12365;43.554;1.388;2024-03-23T04:42:12;100517.94;;;15.66;53.83
24234;BME280;12365;43.554;1.388;2024-03-23T04:44:37;100511.81;;;15.67;53.84
24234;BME280;12365;43.554;1.388;2024-03-23T04:47:03;100522.13;;;15.60;53.76
24234;BME280;12365;43.554;1.388;2024-03-23T04:49:28;100516.84;;;15.60;53.97
24234;BME280;12365;43.554;1.388;2024-03-23T04:51:54;100516.84;;;15.60;53.88
24234;BME280;12365;43.554;1.388;2024-03-23T04:54:20;100509.00;;;15.62;53.73
24234;BME280;12365;43.554;1.388;2024-03-23T04:56:45;100515.00;;;15.58;53.59
24234;BME280;12365;43.554;1.388;2024-03-23T04:59:10;100521.22;;;15.60;53.46
24234;BME280;12365;43.554;1.388;2024-03-23T05:01:36;100512.41;;;15.59;53.47
24234;BME280;12365;43.554;1.388;2024-03-23T05:04:03;100522.22;;;15.64;53.39
24234;BME280;12365;43.554;1.388;2024-03-23T05:06:29;100522.22;;;15.64;53.37
24234;BME280;12365;43.554;1.388;2024-03-23T05:08:54;100533.59;;;15.63;53.48
24234;BME280;12365;43.554;1.388;2024-03-23T05:11:20;100522.22;;;15.64;53.21
24234;BME280;12365;43.554;1.388;2024-03-23T05:13:46;100522.31;;;15.65;53.15
24234;BME280;12365;43.554;1.388;2024-03-23T05:16:11;100530.25;;;15.67;53.29
24234;BME280;12365;43.554;1.388;2024-03-23T05:18:36;100531.97;;;15.66;53.17
24234;BME280;12365;43.554;1.388;2024-03-23T05:21:02;100537.31;;;15.68;53.16
24234;BME280;12365;43.554;1.388;2024-03-23T05:23:30;100535.66;;;15.70;53.14
24234;BME280;12365;43.554;1.388;2024-03-23T05:25:56;100528.56;;;15.69;53.04
24234;BME280;12365;43.554;1.388;2024-03-23T05:28:22;100531.31;;;15.70;53.06
24234;BME280;12365;43.554;1.388;2024-03-23T05:30:54;100538.28;;;15.70;53.10
24234;BME280;12365;43.554;1.388;2024-03-23T05:33:20;100547.09;;;15.70;52.97
24234;BME280;12365;43.554;1.388;2024-03-23T05:35:47;100559.31;;;15.70;53.08
24234;BME280;12365;43.554;1.388;2024-03-23T05:38:13;100558.50;;;15.71;53.11
24234;BME280;12365;43.554;1.388;2024-03-23T05:40:39;100563.78;;;15.71;53.03
24234;BME280;12365;43.554;1.388;2024-03-23T05:43:06;100565.56;;;15.72;53.15
24234;BME280;12365;43.554;1.388;2024-03-23T05:45:32;100565.63;;;15.73;53.21
24234;BME280;12365;43.554;1.388;2024-03-23T05:47:57;100570.81;;;15.72;53.27
24234;BME280;12365;43.554;1.388;2024-03-23T05:50:23;100570.81;;;15.72;53.30
24234;BME280;12365;43.554;1.388;2024-03-23T05:52:49;100566.41;;;15.71;53.23
24234;BME280;12365;43.554;1.388;2024-03-23T05:55:15;100569.03;;;15.71;53.20
24234;BME280;12365;43.554;1.388;2024-03-23T05:57:41;100567.28;;;15.71;53.34
24234;BME280;12365;43.554;1.388;2024-03-23T06:00:07;100568.19;;;15.72;53.19
24234;BME280;12365;43.554;1.388;2024-03-23T06:02:40;100567.22;;;15.70;53.35
24234;BME280;12365;43.554;1.388;2024-03-23T06:05:06;100570.78;;;15.70;53.50
24234;BME280;12365;43.554;1.388;2024-03-23T06:07:32;100569.84;;;15.70;53.48
24234;BME280;12365;43.554;1.388;2024-03-23T06:09:57;100579.25;;;15.65;53.81
24234;BME280;12365;43.554;1.388;2024-03-23T06:12:23;100578.19;;;15.59;54.03
24234;BME280;12365;43.554;1.388;2024-03-23T06:14:48;100592.75;;;15.51;54.20
24234;BME280;12365;43.554;1.388;2024-03-23T06:17:14;100591.75;;;15.48;54.38
24234;BME280;12365;43.554;1.388;2024-03-23T06:19:40;100589.16;;;15.49;54.49
24234;BME280;12365;43.554;1.388;2024-03-23T06:22:06;100588.22;;;15.47;54.64
24234;BME280;12365;43.554;1.388;2024-03-23T06:24:32;100590.84;;;15.47;54.75
24234;BME280;12365;43.554;1.388;2024-03-23T06:26:57;100595.97;;;15.44;54.90
24234;BME280;12365;43.554;1.388;2024-03-23T06:29:22;100592.50;;;15.45;55.00
24234;BME280;12365;43.554;1.388;2024-03-23T06:31:54;100598.66;;;15.46;55.16
24234;BME280;12365;43.554;1.388;2024-03-23T06:34:20;100607.56;;;15.49;55.23
24234;BME280;12365;43.554;1.388;2024-03-23T06:36:47;100607.72;;;15.52;55.41
24234;BME280;12365;43.554;1.388;2024-03-23T06:39:12;100614.66;;;15.50;55.35
24234;BME280;12365;43.554;1.388;2024-03-23T06:41:50;100618.09;;;15.49;55.53
24234;BME280;12365;43.554;1.388;2024-03-23T06:44:16;100623.34;;;15.49;55.50
24234;BME280;12365;43.554;1.388;2024-03-23T06:46:42;100621.44;;;15.45;55.91
24234;BME280;12365;43.554;1.388;2024-03-23T06:49:08;100618.72;;;15.44;55.79
24234;BME280;12365;43.554;1.388;2024-03-23T06:51:33;100620.47;;;15.43;55.73
24234;BME280;12365;43.554;1.388;2024-03-23T06:53:58;100627.47;;;15.43;55.91
24234;BME280;12365;43.554;1.388;2024-03-23T06:56:24;100638.88;;;15.43;55.96
24234;BME280;12365;43.554;1.388;2024-03-23T06:58:49;100630.75;;;15.37;56.18
24234;BME280;12365;43.554;1.388;2024-03-23T07:01:15;100635.72;;;15.31;56.43
24234;BME280;12365;43.554;1.388;2024-03-23T07:03:40;100632.13;;;15.29;56.44
24234;BME280;12365;43.554;1.388;2024-03-23T07:06:05;100630.34;;;15.28;56.64
24234;BME280;12365;43.554;1.388;2024-03-23T07:08:31;100629.56;;;15.30;56.78
24234;BME280;12365;43.554;1.388;2024-03-23T07:10:56;100633.19;;;15.32;56.60
24234;BME280;12365;43.554;1.388;2024-03-23T07:13:22;100639.13;;;15.28;56.95
24234;BME280;12365;43.554;1.388;2024-03-23T07:15:53;100637.94;;;15.22;57.34
24234;BME280;12365;43.554;1.388;2024-03-23T07:18:21;100647.53;;;15.20;57.08
24234;BME280;12365;43.554;1.388;2024-03-23T07:20:56;100644.94;;;15.21;57.35
24234;BME280;12365;43.554;1.388;2024-03-23T07:23:22;100648.28;;;15.17;57.65
24234;BME280;12365;43.554;1.388;2024-03-23T07:26:01;100647.25;;;15.13;57.86
24234;BME280;12365;43.554;1.388;2024-03-23T07:28:27;100647.25;;;15.13;57.74
24234;BME280;12365;43.554;1.388;2024-03-23T07:31:12;100651.50;;;15.10;58.18
24234;BME280;12365;43.554;1.388;2024-03-23T07:33:42;100664.53;;;15.08;58.13
24234;BME280;12365;43.554;1.388;2024-03-23T07:36:08;100666.22;;;15.06;58.11
24234;BME280;12365;43.554;1.388;2024-03-23T07:38:34;100673.84;;;15.00;58.04
24234;BME280;12365;43.554;1.388;2024-03-23T07:41:15;100676.19;;;14.94;58.12
24234;BME280;12365;43.554;1.388;2024-03-23T07:43:42;100680.94;;;14.83;58.32
24234;BME280;12365;43.554;1.388;2024-03-23T07:46:08;100681.09;;;14.67;58.46
24234;BME280;12365;43.554;1.388;2024-03-23T07:48:34;100688.50;;;14.56;58.67
24234;BME280;12365;43.554;1.388;2024-03-23T07:51:01;100688.00;;;14.47;58.85
24234;BME280;12365;43.554;1.388;2024-03-23T07:53:28;100694.63;;;14.39;59.00
24234;BME280;12365;43.554;1.388;2024-03-23T07:56:00;100694.19;;;14.29;59.06
24234;BME280;12365;43.554;1.388;2024-03-23T07:58:26;100702.59;;;14.22;59.10
24234;BME280;12365;43.554;1.388;2024-03-23T08:00:55;100704.22;;;14.20;59.32
24234;BME280;12365;43.554;1.388;2024-03-23T08:03:21;100710.09;;;14.15;59.35
24234;BME280;12365;43.554;1.388;2024-03-23T08:05:47;100718.47;;;14.07;59.63
24234;BME280;12365;43.554;1.388;2024-03-23T08:08:13;100724.47;;;14.05;59.53
24234;BME280;12365;43.554;1.388;2024-03-23T08:10:51;100725.19;;;14.01;59.81
24234;BME280;12365;43.554;1.388;2024-03-23T08:13:17;100725.84;;;13.97;59.84
24234;BME280;12365;43.554;1.388;2024-03-23T08:15:43;100734.22;;;13.90;60.05
24234;BME280;12365;43.554;1.388;2024-03-23T08:18:10;100728.81;;;13.86;60.03
24234;BME280;12365;43.554;1.388;2024-03-23T08:20:36;100744.66;;;13.88;59.97
24234;BME280;12365;43.554;1.388;2024-03-23T08:23:01;100743.91;;;13.91;59.91
24234;BME280;12365;43.554;1.388;2024-03-23T08:25:26;100744.94;;;13.94;59.92
24234;BME280;12365;43.554;1.388;2024-03-23T08:27:52;100754.47;;;13.92;59.89
24234;BME280;12365;43.554;1.388;2024-03-23T08:30:17;100750.94;;;13.92;60.16
24234;BME280;12365;43.554;1.388;2024-03-23T08:32:43;100756.19;;;13.92;59.95
24234;BME280;12365;43.554;1.388;2024-03-23T08:35:09;100766.03;;;13.96;59.95
24234;BME280;12365;43.554;1.388;2024-03-23T08:37:34;100770.81;;;14.04;59.92
24234;BME280;12365;43.554;1.388;2024-03-23T08:40:00;100769.41;;;14.11;59.94
24234;BME280;12365;43.554;1.388;2024-03-23T08:42:25;100776.84;;;14.20;59.76
24234;BME280;12365;43.554;1.388;2024-03-23T08:44:51;100775.34;;;14.25;59.65
24234;BME280;12365;43.554;1.388;2024-03-23T08:47:16;100774.81;;;14.32;59.64
24234;BME280;12365;43.554;1.388;2024-03-23T08:49:42;100785.53;;;14.37;59.43
24234;BME280;12365;43.554;1.388;2024-03-23T08:52:08;100786.06;;;14.47;59.30
24234;BME280;12365;43.554;1.388;2024-03-23T08:54:33;100781.03;;;14.52;59.04
24234;BME280;12365;43.554;1.388;2024-03-23T08:56:59;100787.66;;;14.62;58.99
24234;BME280;12365;43.554;1.388;2024-03-23T08:59:25;100783.75;;;14.71;58.86
24234;BME280;12365;43.554;1.388;2024-03-23T09:01:50;100788.31;;;14.76;58.54
24234;BME280;12365;43.554;1.388;2024-03-23T09:04:16;100785.25;;;14.84;58.43
24234;BME280;12365;43.554;1.388;2024-03-23T09:06:44;100790.00;;;14.93;58.17
24234;BME280;12365;43.554;1.388;2024-03-23T09:09:10;100790.97;;;14.95;57.92
24234;BME280;12365;43.554;1.388;2024-03-23T09:11:35;100781.22;;;14.92;57.71
24234;BME280;12365;43.554;1.388;2024-03-23T09:14:01;100782.25;;;14.96;57.64
24234;BME280;12365;43.554;1.388;2024-03-23T09:16:26;100784.97;;;14.98;57.49
24234;BME280;12365;43.554;1.388;2024-03-23T09:18:52;100786.50;;;14.92;57.43
24234;BME280;12365;43.554;1.388;2024-03-23T09:21:18;100798.59;;;14.89;57.08
24234;BME280;12365;43.554;1.388;2024-03-23T09:23:44;100791.47;;;14.86;56.76
24234;BME280;12365;43.554;1.388;2024-03-23T09:26:09;100791.88;;;14.95;56.08
24234;BME280;12365;43.554;1.388;2024-03-23T09:28:35;100794.63;;;14.99;54.96
24234;BME280;12365;43.554;1.388;2024-03-23T09:31:04;100797.34;;;15.00;54.41
24234;BME280;12365;43.554;1.388;2024-03-23T09:33:30;100802.28;;;15.12;53.83
24234;BME280;12365;43.554;1.388;2024-03-23T09:35:55;100801.34;;;15.29;53.17
24234;BME280;12365;43.554;1.388;2024-03-23T09:38:24;100806.09;;;15.38;52.26
24234;BME280;12365;43.554;1.388;2024-03-23T09:40:53;100799.72;;;15.52;51.81
24234;BME280;12365;43.554;1.388;2024-03-23T09:43:19;100810.50;;;15.58;50.53
24234;BME280;12365;43.554;1.388;2024-03-23T09:45:45;100810.66;;;15.61;50.08
24234;BME280;12365;43.554;1.388;2024-03-23T09:48:11;100806.72;;;15.71;49.94
24234;BME280;12365;43.554;1.388;2024-03-23T09:50:41;100801.47;;;15.92;49.86
24234;BME280;12365;43.554;1.388;2024-03-23T09:53:08;100799.16;;;16.00;49.03
24234;BME280;12365;43.554;1.388;2024-03-23T09:55:34;100793.66;;;15.94;48.72
24234;BME280;12365;43.554;1.388;2024-03-23T09:58:03;100798.47;;;16.04;48.73
24234;BME280;12365;43.554;1.388;2024-03-23T10:00:30;100788.91;;;16.27;48.58
24234;BME280;12365;43.554;1.388;2024-03-23T10:02:56;100802.25;;;16.53;48.10
24234;BME280;12365;43.554;1.388;2024-03-23T10:05:26;100788.38;;;16.57;47.91
24234;BME280;12365;43.554;1.388;2024-03-23T10:07:53;100792.78;;;16.58;47.51
24234;BME280;12365;43.554;1.388;2024-03-23T10:10:18;100774.94;;;16.73;47.34
24234;BME280;12365;43.554;1.388;2024-03-23T10:12:49;100782.88;;;16.96;47.13
24234;BME280;12365;43.554;1.388;2024-03-23T10:15:23;100774.38;;;17.03;46.94
24234;BME280;12365;43.554;1.388;2024-03-23T10:17:50;100777.06;;;17.04;46.38
24234;BME280;12365;43.554;1.388;2024-03-23T10:20:22;100773.66;;;17.07;45.97
24234;BME280;12365;43.554;1.388;2024-03-23T10:22:49;100767.63;;;17.11;45.70
24234;BME280;12365;43.554;1.388;2024-03-23T10:25:15;100766.03;;;17.15;45.25
24234;BME280;12365;43.554;1.388;2024-03-23T10:27:41;100765.03;;;17.35;45.06
24234;BME280;12365;43.554;1.388;2024-03-23T10:30:14;100755.84;;;17.49;44.93
24234;BME280;12365;43.554;1.388;2024-03-23T10:32:42;100757.31;;;17.65;44.43
24234;BME280;12365;43.554;1.388;2024-03-23T10:35:18;100765.94;;;17.61;44.03
24234;BME280;12365;43.554;1.388;2024-03-23T10:37:44;100758.19;;;17.66;43.68
24234;BME280;12365;43.554;1.388;2024-03-23T10:40:12;100754.13;;;17.75;43.37
24234;BME280;12365;43.554;1.388;2024-03-23T10:42:38;100758.03;;;17.85;42.92
24234;BME280;12365;43.554;1.388;2024-03-23T10:45:05;100741.59;;;17.94;42.94
24234;BME280;12365;43.554;1.388;2024-03-23T10:47:37;100743.34;;;17.93;42.43
24234;BME280;12365;43.554;1.388;2024-03-23T10:50:04;100744.31;;;17.97;42.59
24234;BME280;12365;43.554;1.388;2024-03-23T10:52:31;100731.47;;;18.08;42.38
24234;BME280;12365;43.554;1.388;2024-03-23T10:54:57;100748.91;;;18.30;42.23
24234;BME280;12365;43.554;1.388;2024-03-23T10:57:28;100729.94;;;18.41;42.18
24234;BME280;12365;43.554;1.388;2024-03-23T10:59:56;100727.03;;;18.62;41.54
24234;BME280;12365;43.554;1.388;2024-03-23T11:02:22;100733.69;;;18.77;41.32
24234;BME280;12365;43.554;1.388;2024-03-23T11:04:47;100719.59;;;18.49;41.01
24234;BME280;12365;43.554;1.388;2024-03-23T11:07:31;100722.28;;;18.51;40.56
24234;BME280;12365;43.554;1.388;2024-03-23T11:09:57;100726.22;;;18.63;40.46
24234;BME280;12365;43.554;1.388;2024-03-23T11:14:53;100718.59;;;18.74;39.77
24234;BME280;12365;43.554;1.388;2024-03-23T11:17:20;100713.94;;;18.94;39.72
24234;BME280;12365;43.554;1.388;2024-03-23T11:19:56;100706.91;;;18.96;39.22
24234;BME280;12365;43.554;1.388;2024-03-23T11:22:41;100708.19;;;19.09;39.24
24234;BME280;12365;43.554;1.388;2024-03-23T11:27:47;100705.56;;;19.11;38.26
24234;BME280;12365;43.554;1.388;2024-03-23T11:30:17;100689.78;;;19.14;38.41
24234;BME280;12365;43.554;1.388;2024-03-23T11:32:47;100692.63;;;19.20;38.08
24234;BME280;12365;43.554;1.388;2024-03-23T11:35:25;100675.94;;;19.24;37.65
24234;BME280;12365;43.554;1.388;2024-03-23T11:38:10;100678.22;;;19.10;36.87
24234;BME280;12365;43.554;1.388;2024-03-23T11:40:38;100678.00;;;19.02;37.04
24234;BME280;12365;43.554;1.388;2024-03-23T11:43:05;100676.41;;;19.08;37.18
24234;BME280;12365;43.554;1.388;2024-03-23T11:45:47;100669.81;;;18.93;35.88
24234;BME280;12365;43.554;1.388;2024-03-23T11:48:15;100658.69;;;19.05;37.22
24234;BME280;12365;43.554;1.388;2024-03-23T11:50:44;100652.41;;;19.01;36.57
24234;BME280;12365;43.554;1.388;2024-03-23T11:53:13;100659.66;;;19.09;36.86
24234;BME280;12365;43.554;1.388;2024-03-23T11:55:52;100649.06;;;19.09;36.83
24234;BME280;12365;43.554;1.388;2024-03-23T11:58:19;100647.97;;;19.00;35.96
24234;BME280;12365;43.554;1.388;2024-03-23T12:00:56;100641.81;;;19.01;36.14
24234;BME280;12365;43.554;1.388;2024-03-23T12:03:25;100654.16;;;19.01;36.42
24234;BME280;12365;43.554;1.388;2024-03-23T12:05:53;100640.47;;;19.16;36.43
24234;BME280;12365;43.554;1.388;2024-03-23T12:08:20;100637.47;;;19.35;36.29
24234;BME280;12365;43.554;1.388;2024-03-23T12:13:16;100617.72;;;19.57;35.95
24234;BME280;12365;43.554;1.388;2024-03-23T12:15:43;100617.88;;;19.63;35.63
24234;BME280;12365;43.554;1.388;2024-03-23T12:18:09;100623.75;;;19.52;35.67
24234;BME280;12365;43.554;1.388;2024-03-23T12:20:36;100607.72;;;19.45;35.73
24234;BME280;12365;43.554;1.388;2024-03-23T12:23:05;100606.09;;;19.51;35.77
24234;BME280;12365;43.554;1.388;2024-03-23T12:25:31;100606.09;;;19.51;35.63
24234;BME280;12365;43.554;1.388;2024-03-23T12:27:59;100589.69;;;19.65;35.88
24234;BME280;12365;43.554;1.388;2024-03-23T12:30:24;100598.84;;;19.78;35.62
24234;BME280;12365;43.554;1.388;2024-03-23T12:32:50;100598.88;;;19.80;35.34
24234;BME280;12365;43.554;1.388;2024-03-23T12:35:15;100580.16;;;19.72;34.99
24234;BME280;12365;43.554;1.388;2024-03-23T12:37:41;100566.88;;;19.70;35.44
24234;BME280;12365;43.554;1.388;2024-03-23T12:40:07;100575.91;;;19.79;34.98
24234;BME280;12365;43.554;1.388;2024-03-23T12:42:33;100576.66;;;19.73;34.86
24234;BME280;12365;43.554;1.388;2024-03-23T12:44:58;100562.41;;;19.68;34.75
24234;BME280;12365;43.554;1.388;2024-03-23T12:47:23;100561.72;;;19.77;34.64
24234;BME280;12365;43.554;1.388;2024-03-23T12:49:49;100561.06;;;19.85;34.57
24234;BME280;12365;43.554;1.388;2024-03-23T12:52:15;100550.53;;;19.88;34.20
24234;BME280;12365;43.554;1.388;2024-03-23T12:54:40;100545.22;;;19.88;34.70
24234;BME280;12365;43.554;1.388;2024-03-23T12:57:05;100535.91;;;20.06;34.45
24234;BME280;12365;43.554;1.388;2024-03-23T12:59:31;100542.13;;;20.08;34.06
24234;BME280;12365;43.554;1.388;2024-03-23T13:01:57;100530.66;;;20.09;34.30
24234;BME280;12365;43.554;1.388;2024-03-23T13:04:23;100534.03;;;20.02;34.14
24234;BME280;12365;43.554;1.388;2024-03-23T13:06:48;100525.97;;;19.97;34.52
24234;BME280;12365;43.554;1.388;2024-03-23T13:09:13;100527.97;;;20.06;34.44
24234;BME280;12365;43.554;1.388;2024-03-23T13:11:39;100527.03;;;20.04;33.82
24234;BME280;12365;43.554;1.388;2024-03-23T13:14:04;100524.22;;;19.98;34.27
24234;BME280;12365;43.554;1.388;2024-03-23T13:16:30;100511.84;;;19.97;34.17
24234;BME280;12365;43.554;1.388;2024-03-23T13:18:56;100505.72;;;19.99;34.30
24234;BME280;12365;43.554;1.388;2024-03-23T13:21:21;100497.72;;;19.98;33.94
24234;BME280;12365;43.554;1.388;2024-03-23T13:23:47;100500.19;;;19.88;34.01
24234;BME280;12365;43.554;1.388;2024-03-23T13:26:13;100497.50;;;19.85;33.99
24234;BME280;12365;43.554;1.388;2024-03-23T13:28:39;100488.66;;;19.86;34.42
24234;BME280;12365;43.554;1.388;2024-03-23T13:31:05;100488.84;;;19.94;34.48
24234;BME280;12365;43.554;1.388;2024-03-23T13:33:30;100489.00;;;20.02;34.48
24234;BME280;12365;43.554;1.388;2024-03-23T13:35:58;100487.88;;;19.90;33.85
24234;BME280;12365;43.554;1.388;2024-03-23T13:38:24;100478.94;;;19.85;34.45
24234;BME280;12365;43.554;1.388;2024-03-23T13:43:19;100477.38;;;19.95;34.75
24234;BME280;12365;43.554;1.388;2024-03-23T13:45:47;100473.81;;;19.95;34.34
24234;BME280;12365;43.554;1.388;2024-03-23T13:48:14;100463.28;;;19.96;34.27
24234;BME280;12365;43.554;1.388;2024-03-23T13:50:39;100471.25;;;19.98;34.50